createdAt,value
2017-07-05T00:00:02.747Z,18.34
2017-07-05T00:00:06.833Z,18.39
2017-07-05T00:00:10.914Z,18.36
2017-07-05T00:00:15.004Z,18.36
2017-07-05T00:00:19.475Z,18.31
2017-07-05T00:00:23.438Z,18.36
2017-07-05T00:00:27.896Z,18.36
2017-07-05T00:00:31.845Z,18.31
2017-07-05T00:00:35.927Z,18.36
2017-07-05T00:00:40.263Z,18.31
2017-07-05T00:00:44.475Z,18.38
2017-07-05T00:00:48.672Z,18.35
2017-07-05T00:00:52.632Z,18.32
2017-07-05T00:00:56.730Z,18.34
2017-07-05T00:01:00.911Z,18.32
2017-07-05T00:01:04.729Z,18.35
2017-07-05T00:01:08.799Z,18.46
2017-07-05T00:01:12.881Z,18.36
2017-07-05T00:01:16.844Z,18.31
2017-07-05T00:01:21.037Z,18.36
2017-07-05T00:01:25.124Z,18.34
2017-07-05T00:01:29.204Z,18.39
2017-07-05T00:01:33.411Z,18.32
2017-07-05T00:01:37.240Z,18.36
2017-07-05T00:01:41.430Z,18.34
2017-07-05T00:01:45.625Z,18.35
2017-07-05T00:01:49.705Z,18.32
2017-07-05T00:01:53.652Z,18.31
2017-07-05T00:01:57.614Z,18.36
2017-07-05T00:02:01.818Z,18.34
2017-07-05T00:02:05.767Z,18.28
2017-07-05T00:02:09.835Z,18.36
2017-07-05T00:02:13.918Z,18.36
2017-07-05T00:02:17.867Z,18.35
2017-07-05T00:02:21.943Z,18.35
2017-07-05T00:02:26.154Z,18.32
2017-07-05T00:02:30.243Z,18.36
2017-07-05T00:02:34.453Z,18.34
2017-07-05T00:02:38.653Z,18.28
2017-07-05T00:02:42.863Z,18.34
2017-07-05T00:02:47.191Z,18.36
2017-07-05T00:02:51.406Z,18.34
2017-07-05T00:02:55.493Z,18.36
2017-07-05T00:02:59.693Z,18.32
2017-07-05T00:03:03.789Z,18.39
2017-07-05T00:03:07.851Z,18.35
2017-07-05T00:03:11.807Z,18.38
2017-07-05T00:03:16.005Z,18.39
2017-07-05T00:03:20.216Z,18.32
2017-07-05T00:03:24.305Z,18.36
2017-07-05T00:03:28.650Z,18.31
2017-07-05T00:03:33.105Z,18.31
2017-07-05T00:03:37.301Z,18.36
2017-07-05T00:03:41.741Z,18.32
2017-07-05T00:03:45.953Z,18.35
2017-07-05T00:03:50.029Z,18.35
2017-07-05T00:03:53.987Z,18.32
2017-07-05T00:03:58.195Z,18.32
2017-07-05T00:04:02.532Z,18.29
2017-07-05T00:04:06.489Z,18.32
2017-07-05T00:04:10.697Z,18.34
2017-07-05T00:04:15.044Z,18.34
2017-07-05T00:04:19.111Z,18.32
2017-07-05T00:04:23.062Z,18.32
2017-07-05T00:04:27.383Z,18.35
2017-07-05T00:04:31.351Z,18.29
2017-07-05T00:04:35.570Z,18.31
2017-07-05T00:04:39.665Z,18.32
2017-07-05T00:04:43.981Z,18.34
2017-07-05T00:04:48.193Z,18.32
2017-07-05T00:04:52.276Z,18.35
2017-07-05T00:04:56.482Z,18.34
2017-07-05T00:05:00.691Z,18.34
2017-07-05T00:05:04.526Z,18.32
2017-07-05T00:05:08.343Z,18.31
2017-07-05T00:05:12.733Z,18.32
2017-07-05T00:05:16.703Z,18.36
2017-07-05T00:05:20.770Z,18.32
2017-07-05T00:05:25.241Z,18.34
2017-07-05T00:05:29.471Z,18.34
2017-07-05T00:05:33.806Z,18.31
2017-07-05T00:05:38.007Z,18.32
2017-07-05T00:05:42.341Z,18.28
2017-07-05T00:05:46.870Z,18.34
2017-07-05T00:05:51.209Z,18.34
2017-07-05T00:05:55.402Z,18.32
2017-07-05T00:05:59.727Z,18.31
2017-07-05T00:06:04.291Z,18.32
2017-07-05T00:06:08.516Z,18.29
2017-07-05T00:06:12.855Z,18.31
2017-07-05T00:06:17.059Z,18.31
2017-07-05T00:06:21.001Z,18.41
2017-07-05T00:06:25.198Z,18.31
2017-07-05T00:06:29.658Z,18.34
2017-07-05T00:06:33.858Z,18.29
2017-07-05T00:06:37.823Z,18.31
2017-07-05T00:06:42.142Z,18.31
2017-07-05T00:06:46.364Z,18.31
2017-07-05T00:06:50.582Z,18.32
2017-07-05T00:06:55.056Z,18.32
2017-07-05T00:06:58.883Z,18.26
2017-07-05T00:07:02.721Z,18.32
2017-07-05T00:07:06.678Z,18.31
2017-07-05T00:07:10.889Z,18.32
2017-07-05T00:07:14.848Z,18.35
2017-07-05T00:07:18.944Z,18.38
2017-07-05T00:07:23.270Z,18.31
2017-07-05T00:07:27.600Z,18.23
2017-07-05T00:07:31.801Z,18.36
2017-07-05T00:07:36.121Z,18.34
2017-07-05T00:07:40.577Z,18.29
2017-07-05T00:07:45.038Z,18.34
2017-07-05T00:07:49.282Z,18.31
2017-07-05T00:07:53.601Z,18.32
2017-07-05T00:07:57.933Z,18.31
2017-07-05T00:08:01.753Z,18.31
2017-07-05T00:08:05.831Z,18.31
2017-07-05T00:08:10.048Z,18.34
2017-07-05T00:08:13.991Z,18.35
2017-07-05T00:08:18.066Z,18.31
2017-07-05T00:08:22.015Z,18.34
2017-07-05T00:08:26.223Z,18.34
2017-07-05T00:08:30.695Z,18.26
2017-07-05T00:08:34.779Z,18.31
2017-07-05T00:08:38.978Z,18.29
2017-07-05T00:08:43.315Z,18.32
2017-07-05T00:08:47.536Z,18.32
2017-07-05T00:08:51.748Z,18.32
2017-07-05T00:08:55.694Z,18.29
2017-07-05T00:08:59.900Z,18.31
2017-07-05T00:09:03.979Z,18.32
2017-07-05T00:09:08.059Z,18.32
2017-07-05T00:09:12.125Z,18.32
2017-07-05T00:09:16.582Z,18.31
2017-07-05T00:09:20.665Z,18.31
2017-07-05T00:09:24.739Z,18.32
2017-07-05T00:09:28.942Z,18.31
2017-07-05T00:09:33.012Z,18.29
2017-07-05T00:09:36.964Z,18.28
2017-07-05T00:09:41.051Z,18.23
2017-07-05T00:09:45.141Z,18.36
2017-07-05T00:09:49.345Z,18.28
2017-07-05T00:09:53.429Z,18.31
2017-07-05T00:09:57.757Z,18.29
2017-07-05T00:10:01.580Z,18.35
2017-07-05T00:10:05.371Z,18.32
2017-07-05T00:10:09.335Z,18.26
2017-07-05T00:10:13.545Z,18.29
2017-07-05T00:10:17.374Z,18.28
2017-07-05T00:10:21.580Z,18.34
2017-07-05T00:10:25.899Z,18.29
2017-07-05T00:10:30.111Z,18.31
2017-07-05T00:10:34.323Z,18.29
2017-07-05T00:10:38.661Z,18.2
2017-07-05T00:10:43.059Z,18.21
2017-07-05T00:10:47.128Z,18.25
2017-07-05T00:10:51.318Z,18.32
2017-07-05T00:10:55.401Z,18.26
2017-07-05T00:10:59.488Z,18.29
2017-07-05T00:11:03.415Z,18.29
2017-07-05T00:11:07.738Z,18.21
2017-07-05T00:11:11.442Z,18.28
2017-07-05T00:11:15.393Z,18.36
2017-07-05T00:11:19.214Z,18.2
2017-07-05T00:11:22.914Z,18.26
2017-07-05T00:11:27.240Z,18.25
2017-07-05T00:11:31.706Z,18.26
2017-07-05T00:11:35.793Z,18.2
2017-07-05T00:11:40.131Z,18.32
2017-07-05T00:11:44.468Z,18.25
2017-07-05T00:11:48.675Z,18.26
2017-07-05T00:11:52.629Z,18.31
2017-07-05T00:11:56.704Z,18.31
2017-07-05T00:12:00.906Z,18.29
2017-07-05T00:12:04.948Z,18.21
2017-07-05T00:12:09.145Z,18.26
2017-07-05T00:12:13.110Z,18.23
2017-07-05T00:12:17.054Z,18.2
2017-07-05T00:12:20.868Z,18.31
2017-07-05T00:12:25.073Z,18.28
2017-07-05T00:12:29.391Z,18.21
2017-07-05T00:12:33.728Z,18.21
2017-07-05T00:12:38.060Z,18.28
2017-07-05T00:12:41.890Z,18.25
2017-07-05T00:12:45.844Z,18.28
2017-07-05T00:12:50.059Z,18.25
2017-07-05T00:12:54.146Z,18.28
2017-07-05T00:12:58.236Z,18.26
2017-07-05T00:13:02.332Z,18.21
2017-07-05T00:13:06.417Z,18.23
2017-07-05T00:13:10.748Z,18.25
2017-07-05T00:13:15.092Z,18.31
2017-07-05T00:13:19.033Z,18.23
2017-07-05T00:13:23.104Z,18.25
2017-07-05T00:13:27.190Z,18.21
2017-07-05T00:13:31.139Z,18.28
2017-07-05T00:13:35.329Z,18.2
2017-07-05T00:13:39.287Z,18.21
2017-07-05T00:13:43.373Z,18.25
2017-07-05T00:13:47.711Z,18.2
2017-07-05T00:13:51.667Z,18.2
2017-07-05T00:13:55.998Z,18.21
2017-07-05T00:14:00.202Z,18.23
2017-07-05T00:14:04.024Z,18.21
2017-07-05T00:14:07.983Z,18.21
2017-07-05T00:14:12.072Z,18.13
2017-07-05T00:14:16.160Z,18.16
2017-07-05T00:14:20.356Z,18.21
2017-07-05T00:14:24.306Z,18.19
2017-07-05T00:14:28.369Z,18.17
2017-07-05T00:14:32.689Z,18.17
2017-07-05T00:14:37.032Z,18.23
2017-07-05T00:14:41.486Z,18.2
2017-07-05T00:14:45.694Z,18.21
2017-07-05T00:14:49.655Z,18.17
2017-07-05T00:14:53.996Z,18.17
2017-07-05T00:14:58.327Z,18.19
2017-07-05T00:15:02.561Z,18.17
2017-07-05T00:15:06.384Z,18.17
2017-07-05T00:15:10.340Z,18.14
2017-07-05T00:15:14.422Z,18.17
2017-07-05T00:15:18.629Z,18.26
2017-07-05T00:15:22.454Z,18.23
2017-07-05T00:15:26.674Z,18.1
2017-07-05T00:15:31.132Z,18.13
2017-07-05T00:15:35.080Z,18.21
2017-07-05T00:15:39.169Z,18.16
2017-07-05T00:15:42.982Z,18.16
2017-07-05T00:15:47.453Z,18.11
2017-07-05T00:15:51.798Z,18.19
2017-07-05T00:15:56.139Z,18.16
2017-07-05T00:16:00.479Z,18.13
2017-07-05T00:16:04.784Z,18.21
2017-07-05T00:16:09.132Z,18.16
2017-07-05T00:16:13.345Z,18.11
2017-07-05T00:16:17.543Z,18.13
2017-07-05T00:16:21.480Z,18.11
2017-07-05T00:16:25.547Z,18.31
2017-07-05T00:16:29.651Z,18.14
2017-07-05T00:16:33.857Z,18.09
2017-07-05T00:16:38.061Z,18.1
2017-07-05T00:16:41.876Z,18.16
2017-07-05T00:16:46.328Z,18.11
2017-07-05T00:16:50.274Z,18.13
2017-07-05T00:16:54.485Z,18.13
2017-07-05T00:16:58.938Z,18.14
2017-07-05T00:17:02.896Z,18.19
2017-07-05T00:17:06.870Z,18.11
2017-07-05T00:17:10.836Z,18.14
2017-07-05T00:17:14.791Z,18.16
2017-07-05T00:17:18.758Z,18.16
2017-07-05T00:17:22.709Z,18.14
2017-07-05T00:17:26.773Z,18.19
2017-07-05T00:17:30.739Z,18.14
2017-07-05T00:17:34.941Z,18.14
2017-07-05T00:17:39.134Z,18.14
2017-07-05T00:17:43.077Z,18.14
2017-07-05T00:17:47.221Z,18.09
2017-07-05T00:17:51.412Z,18.1
2017-07-05T00:17:55.863Z,18.11
2017-07-05T00:18:00.072Z,18.19
2017-07-05T00:18:04.038Z,18.13
2017-07-05T00:18:08.418Z,18.17
2017-07-05T00:18:12.742Z,18.11
2017-07-05T00:18:16.719Z,18.16
2017-07-05T00:18:20.671Z,18.17
2017-07-05T00:18:24.872Z,18.09
2017-07-05T00:18:29.197Z,18.14
2017-07-05T00:18:33.407Z,18.13
2017-07-05T00:18:37.731Z,18.16
2017-07-05T00:18:42.054Z,18.13
2017-07-05T00:18:46.393Z,18.14
2017-07-05T00:18:50.343Z,18.1
2017-07-05T00:18:54.041Z,18.09
2017-07-05T00:18:58.375Z,18.13
2017-07-05T00:19:02.823Z,18.2
2017-07-05T00:19:06.772Z,18.17
2017-07-05T00:19:10.721Z,18.13
2017-07-05T00:19:14.814Z,18.1
2017-07-05T00:19:18.886Z,18.13
2017-07-05T00:19:22.601Z,18.16
2017-07-05T00:19:26.685Z,18.2
2017-07-05T00:19:30.502Z,18.1
2017-07-05T00:19:34.713Z,18.16
2017-07-05T00:19:38.922Z,18.2
2017-07-05T00:19:43.005Z,18.19
2017-07-05T00:19:47.088Z,18.17
2017-07-05T00:19:51.301Z,18.09
2017-07-05T00:19:55.498Z,18.16
2017-07-05T00:19:59.569Z,18.09
2017-07-05T00:20:03.752Z,18.07
2017-07-05T00:20:07.713Z,18.13
2017-07-05T00:20:12.058Z,18.05
2017-07-05T00:20:16.390Z,18.1
2017-07-05T00:20:20.462Z,18.16
2017-07-05T00:20:24.546Z,18.09
2017-07-05T00:20:28.755Z,18.1
2017-07-05T00:20:32.854Z,18.11
2017-07-05T00:20:37.196Z,18.1
2017-07-05T00:20:41.661Z,18.17
2017-07-05T00:20:46.016Z,18.13
2017-07-05T00:20:50.342Z,18.1
2017-07-05T00:20:54.424Z,18.17
2017-07-05T00:20:58.122Z,18.11
2017-07-05T00:21:01.822Z,18.09
2017-07-05T00:21:05.766Z,18.13
2017-07-05T00:21:09.971Z,18.09
2017-07-05T00:21:14.432Z,18.14
2017-07-05T00:21:18.396Z,18.11
2017-07-05T00:21:22.611Z,18.09
2017-07-05T00:21:26.942Z,18.1
2017-07-05T00:21:31.151Z,18.11
2017-07-05T00:21:35.356Z,18.14
2017-07-05T00:21:39.555Z,18.11
2017-07-05T00:21:43.633Z,18.09
2017-07-05T00:21:47.851Z,18.1
2017-07-05T00:21:52.050Z,18.11
2017-07-05T00:21:55.746Z,18.1
2017-07-05T00:21:59.457Z,18.1
2017-07-05T00:22:03.163Z,18.09
2017-07-05T00:22:06.852Z,18.09
2017-07-05T00:22:10.546Z,18.09
2017-07-05T00:22:14.369Z,18.07
2017-07-05T00:22:18.073Z,18.09
2017-07-05T00:22:21.771Z,18.11
2017-07-05T00:22:25.469Z,18.09
2017-07-05T00:22:29.295Z,18.09
2017-07-05T00:22:33.123Z,18.09
2017-07-05T00:22:36.947Z,17.96
2017-07-05T00:22:40.647Z,18.1
2017-07-05T00:22:44.477Z,18.05
2017-07-05T00:22:48.178Z,17.98
2017-07-05T00:22:51.881Z,18.01
2017-07-05T00:22:55.586Z,18.01
2017-07-05T00:22:59.300Z,17.99
2017-07-05T00:23:03.263Z,17.99
2017-07-05T00:23:06.952Z,18.09
2017-07-05T00:23:10.796Z,18.09
2017-07-05T00:23:14.505Z,17.94
2017-07-05T00:23:18.200Z,17.99
2017-07-05T00:23:22.024Z,18.14
2017-07-05T00:23:25.841Z,18.01
2017-07-05T00:23:29.539Z,18.01
2017-07-05T00:23:33.503Z,17.99
2017-07-05T00:23:37.221Z,17.95
2017-07-05T00:23:40.923Z,17.95
2017-07-05T00:23:44.613Z,17.98
2017-07-05T00:23:48.321Z,17.92
2017-07-05T00:23:52.139Z,17.95
2017-07-05T00:23:55.834Z,17.94
2017-07-05T00:23:59.780Z,17.99
2017-07-05T00:24:04.024Z,17.95
2017-07-05T00:24:08.102Z,18.05
2017-07-05T00:24:12.291Z,18.04
2017-07-05T00:24:16.253Z,18.02
2017-07-05T00:24:20.218Z,17.99
2017-07-05T00:24:24.558Z,17.99
2017-07-05T00:24:28.880Z,18.02
2017-07-05T00:24:33.207Z,18.04
2017-07-05T00:24:37.540Z,18.01
2017-07-05T00:24:41.867Z,17.98
2017-07-05T00:24:46.053Z,17.96
2017-07-05T00:24:50.261Z,18.01
2017-07-05T00:24:54.624Z,17.98
2017-07-05T00:24:58.828Z,17.98
2017-07-05T00:25:03.340Z,17.99
2017-07-05T00:25:07.294Z,18.02
2017-07-05T00:25:11.376Z,18.01
2017-07-05T00:25:15.715Z,18.01
2017-07-05T00:25:19.666Z,17.99
2017-07-05T00:25:23.624Z,17.99
2017-07-05T00:25:27.842Z,17.92
2017-07-05T00:25:31.926Z,17.96
2017-07-05T00:25:36.010Z,17.98
2017-07-05T00:25:40.341Z,17.96
2017-07-05T00:25:44.792Z,18.02
2017-07-05T00:25:49.015Z,17.91
2017-07-05T00:25:53.202Z,17.94
2017-07-05T00:25:57.649Z,17.95
2017-07-05T00:26:01.732Z,17.98
2017-07-05T00:26:06.326Z,17.99
2017-07-05T00:26:10.598Z,17.99
2017-07-05T00:26:14.694Z,17.89
2017-07-05T00:26:18.892Z,17.96
2017-07-05T00:26:22.975Z,17.95
2017-07-05T00:26:27.442Z,17.87
2017-07-05T00:26:31.306Z,17.92
2017-07-05T00:26:35.003Z,17.92
2017-07-05T00:26:39.077Z,17.86
2017-07-05T00:26:43.292Z,17.94
2017-07-05T00:26:47.628Z,17.96
2017-07-05T00:26:51.842Z,17.91
2017-07-05T00:26:56.169Z,17.95
2017-07-05T00:27:00.010Z,17.84
2017-07-05T00:27:03.836Z,17.89
2017-07-05T00:27:08.293Z,17.94
2017-07-05T00:27:12.491Z,17.86
2017-07-05T00:27:16.815Z,17.89
2017-07-05T00:27:21.022Z,17.92
2017-07-05T00:27:25.288Z,17.92
2017-07-05T00:27:29.640Z,17.92
2017-07-05T00:27:33.955Z,17.91
2017-07-05T00:27:38.030Z,17.92
2017-07-05T00:27:42.231Z,17.96
2017-07-05T00:27:46.065Z,17.94
2017-07-05T00:27:50.146Z,17.91
2017-07-05T00:27:54.347Z,17.94
2017-07-05T00:27:58.424Z,17.95
2017-07-05T00:28:02.628Z,17.84
2017-07-05T00:28:06.838Z,17.83
2017-07-05T00:28:11.163Z,17.92
2017-07-05T00:28:15.248Z,17.91
2017-07-05T00:28:19.454Z,17.94
2017-07-05T00:28:23.404Z,17.94
2017-07-05T00:28:27.475Z,17.84
2017-07-05T00:28:31.665Z,17.94
2017-07-05T00:28:35.746Z,17.91
2017-07-05T00:28:40.071Z,17.83
2017-07-05T00:28:44.443Z,17.94
2017-07-05T00:28:48.764Z,17.91
2017-07-05T00:28:52.968Z,17.89
2017-07-05T00:28:57.186Z,17.91
2017-07-05T00:29:01.384Z,17.87
2017-07-05T00:29:05.629Z,17.84
2017-07-05T00:29:09.582Z,17.84
2017-07-05T00:29:13.669Z,17.83
2017-07-05T00:29:17.869Z,17.89
2017-07-05T00:29:22.107Z,17.84
2017-07-05T00:29:26.433Z,17.91
2017-07-05T00:29:30.640Z,17.86
2017-07-05T00:29:34.717Z,17.89
2017-07-05T00:29:39.059Z,17.87
2017-07-05T00:29:43.258Z,17.83
2017-07-05T00:29:47.356Z,17.84
2017-07-05T00:29:51.433Z,17.87
2017-07-05T00:29:55.644Z,17.89
2017-07-05T00:29:59.975Z,17.86
2017-07-05T00:30:03.791Z,17.83
2017-07-05T00:30:07.876Z,17.83
2017-07-05T00:30:12.190Z,17.81
2017-07-05T00:30:16.128Z,17.8
2017-07-05T00:30:19.967Z,17.8
2017-07-05T00:30:23.939Z,17.87
2017-07-05T00:30:27.900Z,17.92
2017-07-05T00:30:32.093Z,17.81
2017-07-05T00:30:36.410Z,17.91
2017-07-05T00:30:40.605Z,17.87
2017-07-05T00:30:44.680Z,17.96
2017-07-05T00:30:48.769Z,17.81
2017-07-05T00:30:52.977Z,17.8
2017-07-05T00:30:57.302Z,17.83
2017-07-05T00:31:01.511Z,17.86
2017-07-05T00:31:05.463Z,17.87
2017-07-05T00:31:09.672Z,17.89
2017-07-05T00:31:14.007Z,17.83
2017-07-05T00:31:17.964Z,17.83
2017-07-05T00:31:22.064Z,17.87
2017-07-05T00:31:26.392Z,17.89
2017-07-05T00:31:30.849Z,17.91
2017-07-05T00:31:34.814Z,17.83
2017-07-05T00:31:39.030Z,17.81
2017-07-05T00:31:43.109Z,17.83
2017-07-05T00:31:46.924Z,17.92
2017-07-05T00:31:51.255Z,17.83
2017-07-05T00:31:55.470Z,17.77
2017-07-05T00:31:59.929Z,17.86
2017-07-05T00:32:04.172Z,17.86
2017-07-05T00:32:08.380Z,17.87
2017-07-05T00:32:12.468Z,17.87
2017-07-05T00:32:16.429Z,17.83
2017-07-05T00:32:20.389Z,17.83
2017-07-05T00:32:24.588Z,17.81
2017-07-05T00:32:28.813Z,17.86
2017-07-05T00:32:33.271Z,17.83
2017-07-05T00:32:37.353Z,17.87
2017-07-05T00:32:41.705Z,17.84
2017-07-05T00:32:45.775Z,17.83
2017-07-05T00:32:49.721Z,17.87
2017-07-05T00:32:53.668Z,17.81
2017-07-05T00:32:58.019Z,17.89
2017-07-05T00:33:02.254Z,17.81
2017-07-05T00:33:06.197Z,17.8
2017-07-05T00:33:10.533Z,17.81
2017-07-05T00:33:14.356Z,17.89
2017-07-05T00:33:18.562Z,17.91
2017-07-05T00:33:22.653Z,17.8
2017-07-05T00:33:26.626Z,17.8
2017-07-05T00:33:30.704Z,17.83
2017-07-05T00:33:34.784Z,17.84
2017-07-05T00:33:38.741Z,17.77
2017-07-05T00:33:42.844Z,17.87
2017-07-05T00:33:46.924Z,17.84
2017-07-05T00:33:50.624Z,17.83
2017-07-05T00:33:54.844Z,17.92
2017-07-05T00:33:59.372Z,17.83
2017-07-05T00:34:03.188Z,17.83
2017-07-05T00:34:07.387Z,17.8
2017-07-05T00:34:11.593Z,17.87
2017-07-05T00:34:15.928Z,17.79
2017-07-05T00:34:20.131Z,17.81
2017-07-05T00:34:24.099Z,17.84
2017-07-05T00:34:27.810Z,17.84
2017-07-05T00:34:31.901Z,17.84
2017-07-05T00:34:36.106Z,17.84
2017-07-05T00:34:40.315Z,17.87
2017-07-05T00:34:44.384Z,17.83
2017-07-05T00:34:48.715Z,17.89
2017-07-05T00:34:52.931Z,17.79
2017-07-05T00:34:57.153Z,17.86
2017-07-05T00:35:01.587Z,17.84
2017-07-05T00:35:05.651Z,17.86
2017-07-05T00:35:09.867Z,17.8
2017-07-05T00:35:14.333Z,17.79
2017-07-05T00:35:18.673Z,17.83
2017-07-05T00:35:22.631Z,17.83
2017-07-05T00:35:26.591Z,17.79
2017-07-05T00:35:30.789Z,17.81
2017-07-05T00:35:34.790Z,17.81
2017-07-05T00:35:39.241Z,17.83
2017-07-05T00:35:43.438Z,17.8
2017-07-05T00:35:47.646Z,17.86
2017-07-05T00:35:51.867Z,17.89
2017-07-05T00:35:56.072Z,17.77
2017-07-05T00:36:00.404Z,17.83
2017-07-05T00:36:04.435Z,17.8
2017-07-05T00:36:08.658Z,17.77
2017-07-05T00:36:12.776Z,17.77
2017-07-05T00:36:17.103Z,17.79
2017-07-05T00:36:21.085Z,17.77
2017-07-05T00:36:25.022Z,17.81
2017-07-05T00:36:29.235Z,17.81
2017-07-05T00:36:33.201Z,17.84
2017-07-05T00:36:37.394Z,17.84
2017-07-05T00:36:41.589Z,17.74
2017-07-05T00:36:45.918Z,17.83
2017-07-05T00:36:50.134Z,17.77
2017-07-05T00:36:54.345Z,17.81
2017-07-05T00:36:58.547Z,17.77
2017-07-05T00:37:02.875Z,17.77
2017-07-05T00:37:07.074Z,17.81
2017-07-05T00:37:11.025Z,17.83
2017-07-05T00:37:15.217Z,17.79
2017-07-05T00:37:19.434Z,17.77
2017-07-05T00:37:23.778Z,17.8
2017-07-05T00:37:28.276Z,17.83
2017-07-05T00:37:32.616Z,17.81
2017-07-05T00:37:36.687Z,17.79
2017-07-05T00:37:40.508Z,17.8
2017-07-05T00:37:44.715Z,17.83
2017-07-05T00:37:48.937Z,17.79
2017-07-05T00:37:53.144Z,17.76
2017-07-05T00:37:57.332Z,17.79
2017-07-05T00:38:01.648Z,17.77
2017-07-05T00:38:05.790Z,17.74
2017-07-05T00:38:09.852Z,17.73
2017-07-05T00:38:13.920Z,17.74
2017-07-05T00:38:18.007Z,17.81
2017-07-05T00:38:21.957Z,17.74
2017-07-05T00:38:26.098Z,17.77
2017-07-05T00:38:30.483Z,17.74
2017-07-05T00:38:34.304Z,17.74
2017-07-05T00:38:38.642Z,17.76
2017-07-05T00:38:42.593Z,17.81
2017-07-05T00:38:46.663Z,17.77
2017-07-05T00:38:50.874Z,17.81
2017-07-05T00:38:55.074Z,17.81
2017-07-05T00:38:59.285Z,17.77
2017-07-05T00:39:03.221Z,17.71
2017-07-05T00:39:07.312Z,17.76
2017-07-05T00:39:11.398Z,17.79
2017-07-05T00:39:15.723Z,17.79
2017-07-05T00:39:19.921Z,17.79
2017-07-05T00:39:23.885Z,17.8
2017-07-05T00:39:28.098Z,17.76
2017-07-05T00:39:32.433Z,17.77
2017-07-05T00:39:36.629Z,17.84
2017-07-05T00:39:40.830Z,17.77
2017-07-05T00:39:44.901Z,17.76
2017-07-05T00:39:49.340Z,17.84
2017-07-05T00:39:53.677Z,17.81
2017-07-05T00:39:57.652Z,17.74
2017-07-05T00:40:02.230Z,17.77
2017-07-05T00:40:06.188Z,17.83
2017-07-05T00:40:10.262Z,17.71
2017-07-05T00:40:14.336Z,17.77
2017-07-05T00:40:18.645Z,17.77
2017-07-05T00:40:22.591Z,17.8
2017-07-05T00:40:26.548Z,17.74
2017-07-05T00:40:30.621Z,17.81
2017-07-05T00:40:34.964Z,17.8
2017-07-05T00:40:39.292Z,17.79
2017-07-05T00:40:43.502Z,17.73
2017-07-05T00:40:47.960Z,17.7
2017-07-05T00:40:52.171Z,17.8
2017-07-05T00:40:56.380Z,17.79
2017-07-05T00:41:00.463Z,17.79
2017-07-05T00:41:04.444Z,17.79
2017-07-05T00:41:08.772Z,17.77
2017-07-05T00:41:12.735Z,17.8
2017-07-05T00:41:16.947Z,17.79
2017-07-05T00:41:20.780Z,17.79
2017-07-05T00:41:24.854Z,17.74
2017-07-05T00:41:28.937Z,17.74
2017-07-05T00:41:33.019Z,17.76
2017-07-05T00:41:37.222Z,17.74
2017-07-05T00:41:41.713Z,17.74
2017-07-05T00:41:45.921Z,17.77
2017-07-05T00:41:49.988Z,17.8
2017-07-05T00:41:54.335Z,17.74
2017-07-05T00:41:58.297Z,17.79
2017-07-05T00:42:02.384Z,17.73
2017-07-05T00:42:06.472Z,17.8
2017-07-05T00:42:10.418Z,17.8
2017-07-05T00:42:14.491Z,17.7
2017-07-05T00:42:18.822Z,17.74
2017-07-05T00:42:22.905Z,17.7
2017-07-05T00:42:27.238Z,17.71
2017-07-05T00:42:31.704Z,17.81
2017-07-05T00:42:35.790Z,17.73
2017-07-05T00:42:40.260Z,17.77
2017-07-05T00:42:44.468Z,17.66
2017-07-05T00:42:48.793Z,17.7
2017-07-05T00:42:52.992Z,17.68
2017-07-05T00:42:57.190Z,17.73
2017-07-05T00:43:01.536Z,17.73
2017-07-05T00:43:05.227Z,17.66
2017-07-05T00:43:09.327Z,17.68
2017-07-05T00:43:13.397Z,17.68
2017-07-05T00:43:17.216Z,17.68
2017-07-05T00:43:21.307Z,17.68
2017-07-05T00:43:25.393Z,17.63
2017-07-05T00:43:29.706Z,17.66
2017-07-05T00:43:33.902Z,17.66
2017-07-05T00:43:38.098Z,17.73
2017-07-05T00:43:42.424Z,17.7
2017-07-05T00:43:46.798Z,17.66
2017-07-05T00:43:50.756Z,17.71
2017-07-05T00:43:54.835Z,17.76
2017-07-05T00:43:59.043Z,17.7
2017-07-05T00:44:03.218Z,17.68
2017-07-05T00:44:07.048Z,17.73
2017-07-05T00:44:11.136Z,17.66
2017-07-05T00:44:15.089Z,17.68
2017-07-05T00:44:19.040Z,17.66
2017-07-05T00:44:23.064Z,17.73
2017-07-05T00:44:27.514Z,17.65
2017-07-05T00:44:31.709Z,17.65
2017-07-05T00:44:35.780Z,17.68
2017-07-05T00:44:40.114Z,17.65
2017-07-05T00:44:44.506Z,17.68
2017-07-05T00:44:48.711Z,17.73
2017-07-05T00:44:53.041Z,17.74
2017-07-05T00:44:57.508Z,17.66
2017-07-05T00:45:01.459Z,17.73
2017-07-05T00:45:05.415Z,17.71
2017-07-05T00:45:09.375Z,17.63
2017-07-05T00:45:13.705Z,17.68
2017-07-05T00:45:17.795Z,17.71
2017-07-05T00:45:21.767Z,17.63
2017-07-05T00:45:25.718Z,17.68
2017-07-05T00:45:30.176Z,17.73
2017-07-05T00:45:34.132Z,17.63
2017-07-05T00:45:38.342Z,17.62
2017-07-05T00:45:42.315Z,17.65
2017-07-05T00:45:46.807Z,17.77
2017-07-05T00:45:50.880Z,17.65
2017-07-05T00:45:55.095Z,17.74
2017-07-05T00:45:59.548Z,17.58
2017-07-05T00:46:03.503Z,17.71
2017-07-05T00:46:07.707Z,17.7
2017-07-05T00:46:11.410Z,17.74
2017-07-05T00:46:15.097Z,17.65
2017-07-05T00:46:19.294Z,17.62
2017-07-05T00:46:23.301Z,17.63
2017-07-05T00:46:27.622Z,17.63
2017-07-05T00:46:31.454Z,17.65
2017-07-05T00:46:35.663Z,17.65
2017-07-05T00:46:39.735Z,17.63
2017-07-05T00:46:44.074Z,17.71
2017-07-05T00:46:48.513Z,17.7
2017-07-05T00:46:52.986Z,17.71
2017-07-05T00:46:57.072Z,17.7
2017-07-05T00:47:01.404Z,17.68
2017-07-05T00:47:05.235Z,17.73
2017-07-05T00:47:09.575Z,17.65
2017-07-05T00:47:13.645Z,17.7
2017-07-05T00:47:17.850Z,17.7
2017-07-05T00:47:21.922Z,17.74
2017-07-05T00:47:26.024Z,17.7
2017-07-05T00:47:30.479Z,17.76
2017-07-05T00:47:34.807Z,17.65
2017-07-05T00:47:38.647Z,17.74
2017-07-05T00:47:42.991Z,17.63
2017-07-05T00:47:47.456Z,17.6
2017-07-05T00:47:51.789Z,17.74
2017-07-05T00:47:55.986Z,17.76
2017-07-05T00:48:00.069Z,17.65
2017-07-05T00:48:04.300Z,17.6
2017-07-05T00:48:08.500Z,17.66
2017-07-05T00:48:12.574Z,17.62
2017-07-05T00:48:16.649Z,17.63
2017-07-05T00:48:20.606Z,17.6
2017-07-05T00:48:24.809Z,17.57
2017-07-05T00:48:29.015Z,17.77
2017-07-05T00:48:33.342Z,17.58
2017-07-05T00:48:37.548Z,17.63
2017-07-05T00:48:41.759Z,17.66
2017-07-05T00:48:45.960Z,17.74
2017-07-05T00:48:50.303Z,17.62
2017-07-05T00:48:54.633Z,17.63
2017-07-05T00:48:59.103Z,17.65
2017-07-05T00:49:02.939Z,17.74
2017-07-05T00:49:06.645Z,17.62
2017-07-05T00:49:10.856Z,17.65
2017-07-05T00:49:15.071Z,17.63
2017-07-05T00:49:19.275Z,17.63
2017-07-05T00:49:23.469Z,17.63
2017-07-05T00:49:27.672Z,17.62
2017-07-05T00:49:32.138Z,17.66
2017-07-05T00:49:36.458Z,17.62
2017-07-05T00:49:40.666Z,17.63
2017-07-05T00:49:45.125Z,17.63
2017-07-05T00:49:49.072Z,17.62
2017-07-05T00:49:53.390Z,17.62
2017-07-05T00:49:57.597Z,17.62
2017-07-05T00:50:01.750Z,17.7
2017-07-05T00:50:05.834Z,17.62
2017-07-05T00:50:09.778Z,17.62
2017-07-05T00:50:13.736Z,17.68
2017-07-05T00:50:17.699Z,17.62
2017-07-05T00:50:21.527Z,17.62
2017-07-05T00:50:25.358Z,17.62
2017-07-05T00:50:29.552Z,17.65
2017-07-05T00:50:33.509Z,17.66
2017-07-05T00:50:37.576Z,17.65
2017-07-05T00:50:41.910Z,17.62
2017-07-05T00:50:46.311Z,17.63
2017-07-05T00:50:50.521Z,17.6
2017-07-05T00:50:54.476Z,17.68
2017-07-05T00:50:58.173Z,17.65
2017-07-05T00:51:02.291Z,17.63
2017-07-05T00:51:06.374Z,17.65
2017-07-05T00:51:10.573Z,17.63
2017-07-05T00:51:14.780Z,17.68
2017-07-05T00:51:18.975Z,17.62
2017-07-05T00:51:23.103Z,17.58
2017-07-05T00:51:27.194Z,17.63
2017-07-05T00:51:31.401Z,17.58
2017-07-05T00:51:35.611Z,17.62
2017-07-05T00:51:39.953Z,17.62
2017-07-05T00:51:44.288Z,17.63
2017-07-05T00:51:48.501Z,17.63
2017-07-05T00:51:52.598Z,17.63
2017-07-05T00:51:56.671Z,17.65
2017-07-05T00:52:00.626Z,17.57
2017-07-05T00:52:04.715Z,17.65
2017-07-05T00:52:08.935Z,17.63
2017-07-05T00:52:13.136Z,17.63
2017-07-05T00:52:17.089Z,17.62
2017-07-05T00:52:21.164Z,17.53
2017-07-05T00:52:25.363Z,17.65
2017-07-05T00:52:29.807Z,17.65
2017-07-05T00:52:33.758Z,17.63
2017-07-05T00:52:38.081Z,17.6
2017-07-05T00:52:42.427Z,17.6
2017-07-05T00:52:46.889Z,17.6
2017-07-05T00:52:50.834Z,17.53
2017-07-05T00:52:55.051Z,17.66
2017-07-05T00:52:59.507Z,17.7
2017-07-05T00:53:03.887Z,17.68
2017-07-05T00:53:07.831Z,17.58
2017-07-05T00:53:11.905Z,17.63
2017-07-05T00:53:15.855Z,17.63
2017-07-05T00:53:20.055Z,17.6
2017-07-05T00:53:24.009Z,17.57